Time;durP1;ratioP1;P1;durP2;ratioP2;P2;SDS_P1;SDS_P2;PMS_P1;PMS_P2;Temp;Humidity;BMP_temperature;BMP_pressure;BME280_temperature;BME280_humidity;BME280_pressure;Samples;Min_cycle;Max_cycle;Signal;HPM_P1;HPM_P2
2021/10/06 00:02:17;;;;;;;6.10;3.80;;;13.70;99.90;;;;;;5051228;28;20183;-72
2021/10/06 00:04:43;;;;;;;5.65;3.53;;;13.70;99.90;;;;;;5069118;28;20216;-71
2021/10/06 00:07:09;;;;;;;6.10;3.70;;;13.80;99.90;;;;;;5069055;28;20198;-72
2021/10/06 00:09:35;;;;;;;6.03;3.88;;;13.80;99.90;;;;;;5068951;28;20649;-72
2021/10/06 00:12:01;;;;;;;6.90;3.50;;;13.80;99.90;;;;;;5068933;28;20157;-72
2021/10/06 00:14:27;;;;;;;5.13;3.25;;;13.90;99.90;;;;;;5068772;28;20195;-71
2021/10/06 00:16:53;;;;;;;7.32;4.25;;;13.80;99.90;;;;;;5068751;28;20160;-72
2021/10/06 00:19:21;;;;;;;6.68;3.92;;;13.80;99.90;;;;;;5068973;28;20221;-71
2021/10/06 00:21:46;;;;;;;5.80;3.85;;;13.80;99.90;;;;;;5068941;28;20187;-72
2021/10/06 00:24:12;;;;;;;8.75;3.70;;;13.70;99.90;;;;;;5068624;28;20192;-72
2021/10/06 00:26:38;;;;;;;6.15;3.70;;;13.90;99.90;;;;;;5068661;28;20161;-71
2021/10/06 00:29:06;;;;;;;7.93;3.92;;;13.90;99.90;;;;;;5068537;28;20189;-72
2021/10/06 00:31:32;;;;;;;8.80;3.38;;;13.90;99.90;;;;;;5068637;28;20604;-72
2021/10/06 00:33:58;;;;;;;7.43;4.15;;;13.80;99.90;;;;;;5068476;28;20256;-72
2021/10/06 00:36:24;;;;;;;5.70;4.18;;;13.80;99.90;;;;;;5068599;28;20164;-72
2021/10/06 00:38:50;;;;;;;7.30;3.42;;;13.80;99.90;;;;;;5047814;28;20204;-72
2021/10/06 00:41:16;;;;;;;8.18;3.90;;;13.80;99.90;;;;;;5050335;28;20179;-72
2021/10/06 00:43:42;;;;;;;6.15;3.47;;;13.80;99.90;;;;;;5068420;28;20295;-71
2021/10/06 00:46:08;;;;;;;6.57;3.72;;;13.80;99.90;;;;;;5068227;28;20160;-72
2021/10/06 00:48:34;;;;;;;4.93;2.83;;;13.80;99.90;;;;;;5067864;28;20193;-72
2021/10/06 00:51:00;;;;;;;4.80;3.10;;;13.70;99.90;;;;;;5068581;28;20172;-72
2021/10/06 00:53:27;;;;;;;6.63;3.45;;;13.70;99.90;;;;;;5068122;28;20212;-72
2021/10/06 00:55:55;;;;;;;6.90;3.25;;;13.60;99.90;;;;;;5068248;28;20552;-72
2021/10/06 00:58:21;;;;;;;3.78;3.22;;;13.60;99.90;;;;;;5068107;28;20184;-72
2021/10/06 01:00:48;;;;;;;4.78;3.17;;;13.50;99.90;;;;;;5068001;28;20164;-72
2021/10/06 01:03:17;;;;;;;6.40;2.97;;;13.40;99.90;;;;;;5068053;28;20218;-72
2021/10/06 01:05:43;;;;;;;6.07;4.05;;;13.50;99.90;;;;;;5050060;28;20180;-73
2021/10/06 01:08:10;;;;;;;6.63;3.45;;;13.40;99.90;;;;;;5067927;28;20203;-72
2021/10/06 01:10:36;;;;;;;9.07;3.83;;;13.40;99.90;;;;;;5068051;28;20198;-72
2021/10/06 01:13:03;;;;;;;8.30;3.30;;;13.30;99.90;;;;;;5068068;28;20157;-70
2021/10/06 01:15:29;;;;;;;10.13;3.65;;;13.30;99.90;;;;;;5068088;28;20255;-71
2021/10/06 01:17:55;;;;;;;4.90;3.40;;;13.30;99.90;;;;;;5067877;28;20165;-71
2021/10/06 01:20:21;;;;;;;6.72;3.83;;;13.40;99.90;;;;;;5067981;28;20592;-71
2021/10/06 01:22:47;;;;;;;8.85;3.90;;;13.40;99.90;;;;;;5067948;28;20172;-71
2021/10/06 01:25:15;;;;;;;4.68;3.45;;;13.40;99.90;;;;;;5067845;28;20157;-71
2021/10/06 01:27:43;;;;;;;7.55;3.42;;;13.40;99.90;;;;;;5067853;28;20167;-72
2021/10/06 01:30:12;;;;;;;7.47;4.07;;;13.50;99.90;;;;;;5067835;28;20197;-71
2021/10/06 01:32:40;;;;;;;5.65;3.67;;;13.50;99.90;;;;;;5067713;28;20211;-71
2021/10/06 01:35:09;;;;;;;4.22;3.40;;;13.60;99.90;;;;;;5067921;28;20159;-71
2021/10/06 01:37:37;;;;;;;5.90;3.95;;;13.50;99.90;;;;;;5067882;28;20152;-71
2021/10/06 01:40:07;;;;;;;6.90;3.67;;;13.40;99.90;;;;;;5067657;28;20193;-71
2021/10/06 01:42:33;;;;;;;6.38;3.63;;;13.20;99.90;;;;;;5067746;28;20168;-71
2021/10/06 01:44:59;;;;;;;6.30;3.60;;;13.30;99.90;;;;;;5067697;28;20183;-71
2021/10/06 01:47:27;;;;;;;5.53;3.45;;;13.30;99.90;;;;;;5067599;28;20161;-71
2021/10/06 01:49:53;;;;;;;6.70;3.70;;;13.20;99.90;;;;;;5067422;28;20195;-71
2021/10/06 01:52:22;;;;;;;5.65;3.97;;;13.10;99.90;;;;;;5067323;28;20227;-71
2021/10/06 01:54:50;;;;;;;8.30;3.88;;;13.10;99.90;;;;;;5067451;28;20176;-72
2021/10/06 01:57:17;;;;;;;7.97;3.97;;;13.00;99.90;;;;;;5067603;28;20223;-71
2021/10/06 01:59:45;;;;;;;7.32;4.28;;;13.00;99.90;;;;;;5051964;28;20574;-72
2021/10/06 02:02:11;;;;;;;5.47;3.42;;;13.10;99.90;;;;;;5071577;28;20186;-71
2021/10/06 02:04:39;;;;;;;5.80;3.50;;;13.10;99.90;;;;;;5071443;28;20160;-71
2021/10/06 02:07:05;;;;;;;10.43;3.90;;;13.10;99.90;;;;;;5071424;28;20157;-71
2021/10/06 02:09:31;;;;;;;4.43;3.42;;;13.00;99.90;;;;;;5071218;28;20200;-71
2021/10/06 02:11:57;;;;;;;8.27;4.38;;;13.10;99.90;;;;;;5071389;28;20544;-71
2021/10/06 02:14:23;;;;;;;7.50;3.72;;;13.10;99.90;;;;;;5071206;28;20157;-72
2021/10/06 02:16:49;;;;;;;4.65;3.72;;;13.10;99.90;;;;;;5070989;28;20168;-72
2021/10/06 02:19:14;;;;;;;5.32;3.53;;;13.00;99.90;;;;;;5070941;28;20196;-72
2021/10/06 02:21:40;;;;;;;5.50;3.33;;;13.10;99.90;;;;;;5071049;28;20618;-72
2021/10/06 02:24:06;;;;;;;6.28;3.75;;;12.90;99.90;;;;;;5070619;28;20176;-72
2021/10/06 02:26:33;;;;;;;6.93;3.63;;;12.90;99.90;;;;;;5070776;28;20168;-72
2021/10/06 02:28:59;;;;;;;6.45;3.60;;;12.90;99.90;;;;;;5070781;28;20204;-72
2021/10/06 02:31:25;;;;;;;7.35;3.63;;;12.80;99.90;;;;;;5071014;28;20164;-73
2021/10/06 02:33:51;;;;;;;6.07;3.97;;;12.80;99.90;;;;;;5070908;28;20152;-73
2021/10/06 02:36:17;;;;;;;6.72;3.38;;;12.80;99.90;;;;;;5070837;28;20188;-72
2021/10/06 02:38:43;;;;;;;12.13;4.25;;;12.70;99.90;;;;;;5070630;28;20208;-72
2021/10/06 02:41:09;;;;;;;6.60;3.58;;;12.70;99.90;;;;;;5070671;28;20157;-72
2021/10/06 02:43:35;;;;;;;9.52;4.18;;;12.70;99.90;;;;;;5070575;28;20223;-72
2021/10/06 02:46:01;;;;;;;8.02;4.63;;;12.60;99.90;;;;;;5070560;28;20213;-72
2021/10/06 02:48:27;;;;;;;6.07;3.53;;;12.60;99.90;;;;;;5070337;28;20647;-71
2021/10/06 02:50:53;;;;;;;6.65;3.60;;;12.50;99.90;;;;;;5070580;28;20275;-72
2021/10/06 02:53:19;;;;;;;8.25;4.00;;;12.50;99.90;;;;;;5070324;28;20224;-72
2021/10/06 02:55:45;;;;;;;6.10;4.00;;;12.60;99.90;;;;;;5070204;28;20213;-72
2021/10/06 02:58:10;;;;;;;4.60;3.45;;;12.70;99.90;;;;;;5070316;28;20196;-73
2021/10/06 03:00:36;;;;;;;4.63;3.65;;;12.60;99.90;;;;;;5070283;28;20655;-71
2021/10/06 03:03:02;;;;;;;6.97;4.32;;;12.70;99.90;;;;;;5070188;28;20229;-73
2021/10/06 03:05:28;;;;;;;6.88;4.40;;;12.70;99.90;;;;;;5070213;28;20201;-72
2021/10/06 03:07:54;;;;;;;7.78;4.03;;;12.80;99.90;;;;;;5051963;28;20236;-71
2021/10/06 03:10:20;;;;;;;9.18;3.53;;;12.80;99.90;;;;;;5069912;28;20188;-72
2021/10/06 03:12:46;;;;;;;10.02;4.05;;;12.80;99.90;;;;;;5070096;28;20208;-72
2021/10/06 03:15:12;;;;;;;7.45;3.90;;;12.80;99.90;;;;;;5070003;28;20189;-72
2021/10/06 03:17:38;;;;;;;8.38;4.32;;;12.80;99.90;;;;;;5069932;28;20667;-73
2021/10/06 03:20:06;;;;;;;4.65;3.08;;;12.90;99.90;;;;;;5069734;28;20203;-72
2021/10/06 03:22:32;;;;;;;5.80;3.35;;;12.90;99.90;;;;;;5069803;28;20160;-72
2021/10/06 03:24:58;;;;;;;7.90;3.95;;;12.90;99.90;;;;;;5069851;28;20171;-73
2021/10/06 03:27:24;;;;;;;5.68;3.70;;;12.90;99.90;;;;;;5069968;28;20601;-72
2021/10/06 03:29:50;;;;;;;7.30;3.70;;;12.80;99.90;;;;;;5069735;28;20669;-71
2021/10/06 03:32:17;;;;;;;6.93;3.55;;;12.90;99.90;;;;;;5051616;28;20172;-71
2021/10/06 03:34:43;;;;;;;4.57;3.60;;;12.90;99.90;;;;;;5069613;28;20187;-71
2021/10/06 03:37:09;;;;;;;4.88;3.30;;;12.90;99.90;;;;;;5069772;28;20165;-71
2021/10/06 03:39:35;;;;;;;7.10;3.45;;;12.90;99.90;;;;;;5069459;28;20659;-71
2021/10/06 03:42:02;;;;;;;7.70;3.97;;;12.90;99.90;;;;;;5069995;28;20169;-71
2021/10/06 03:44:28;;;;;;;5.82;3.63;;;12.70;99.90;;;;;;5069232;28;20270;-73
2021/10/06 03:46:53;;;;;;;6.45;3.22;;;12.70;99.90;;;;;;5069275;28;20173;-72
2021/10/06 03:49:20;;;;;;;9.70;3.20;;;12.70;99.90;;;;;;5069098;28;20654;-71
2021/10/06 03:51:45;;;;;;;7.35;3.80;;;12.70;99.90;;;;;;5050956;28;20161;-71
2021/10/06 03:54:11;;;;;;;8.43;4.28;;;12.80;99.90;;;;;;5051001;28;20188;-71
2021/10/06 03:56:37;;;;;;;9.27;4.57;;;12.80;99.90;;;;;;5069224;28;20248;-72
2021/10/06 03:59:03;;;;;;;5.22;3.90;;;12.90;99.90;;;;;;5069115;28;20184;-73
2021/10/06 04:01:29;;;;;;;7.35;4.50;;;12.90;99.90;;;;;;5068885;28;20272;-72
2021/10/06 04:03:55;;;;;;;10.25;3.65;;;12.90;99.90;;;;;;5068927;28;20152;-71
2021/10/06 04:06:21;;;;;;;7.95;4.05;;;13.00;99.90;;;;;;5069008;28;20233;-71
2021/10/06 04:08:47;;;;;;;7.63;4.07;;;12.90;99.90;;;;;;5068700;28;20220;-72
2021/10/06 04:11:13;;;;;;;10.63;4.30;;;12.90;99.90;;;;;;5050560;28;20251;-72
2021/10/06 04:13:39;;;;;;;11.75;3.53;;;12.80;99.90;;;;;;5068636;28;20157;-73
2021/10/06 04:16:04;;;;;;;8.10;4.00;;;12.70;99.90;;;;;;5068727;28;20646;-71
2021/10/06 04:18:30;;;;;;;12.77;4.45;;;12.70;99.90;;;;;;5068561;28;20192;-72
2021/10/06 04:20:56;;;;;;;6.07;4.00;;;12.80;99.90;;;;;;5068484;28;20183;-72
2021/10/06 04:23:22;;;;;;;6.10;3.40;;;12.80;99.90;;;;;;5066914;28;20183;-71
2021/10/06 04:25:48;;;;;;;11.60;5.03;;;12.80;99.90;;;;;;5050219;28;20184;-73
2021/10/06 04:28:14;;;;;;;9.63;5.68;;;12.80;99.90;;;;;;5068268;28;20608;-73
2021/10/06 04:30:40;;;;;;;6.40;4.35;;;12.80;99.90;;;;;;5068065;28;20553;-72
2021/10/06 04:33:06;;;;;;;6.43;3.75;;;12.80;99.90;;;;;;5068312;28;20211;-71
2021/10/06 04:35:32;;;;;;;10.50;4.00;;;12.90;99.90;;;;;;5066873;28;20180;-71
2021/10/06 04:37:58;;;;;;;9.80;3.92;;;12.90;99.90;;;;;;5068043;28;20574;-71
2021/10/06 04:40:23;;;;;;;10.50;4.18;;;12.90;99.90;;;;;;5068004;28;20168;-72
2021/10/06 04:42:50;;;;;;;10.23;3.70;;;12.90;99.90;;;;;;5067981;28;20164;-72
2021/10/06 04:45:16;;;;;;;8.35;3.97;;;12.90;99.90;;;;;;5068095;28;20216;-73
2021/10/06 04:47:42;;;;;;;8.85;4.03;;;12.90;99.90;;;;;;5067653;28;20165;-73
2021/10/06 04:50:08;;;;;;;6.07;3.55;;;12.90;99.90;;;;;;5067905;28;20196;-73
2021/10/06 04:52:34;;;;;;;9.93;4.32;;;12.90;99.90;;;;;;5067525;28;20236;-72
2021/10/06 04:55:00;;;;;;;7.05;3.42;;;12.90;99.90;;;;;;5049507;28;20196;-72
2021/10/06 04:57:26;;;;;;;10.43;3.45;;;12.90;99.90;;;;;;5067661;28;20164;-71
2021/10/06 04:59:52;;;;;;;7.75;3.22;;;13.00;99.90;;;;;;5067367;28;20193;-73
2021/10/06 05:02:18;;;;;;;7.43;3.63;;;13.00;99.90;;;;;;5067570;28;20671;-72
2021/10/06 05:04:44;;;;;;;4.90;3.42;;;13.00;99.90;;;;;;5067671;28;20238;-72
2021/10/06 05:07:10;;;;;;;6.13;3.45;;;13.00;99.90;;;;;;5049501;28;20190;-71
2021/10/06 05:09:35;;;;;;;8.00;3.67;;;13.00;99.90;;;;;;5067282;28;20197;-71
2021/10/06 05:12:02;;;;;;;6.10;3.85;;;13.00;99.90;;;;;;5049230;28;20172;-73
2021/10/06 05:14:30;;;;;;;5.65;3.88;;;13.00;99.90;;;;;;5067323;28;20157;-72
2021/10/06 05:16:56;;;;;;;5.70;3.45;;;12.90;99.90;;;;;;5067363;28;20195;-72
2021/10/06 05:19:22;;;;;;;7.18;3.90;;;12.90;99.90;;;;;;5067085;28;20212;-72
2021/10/06 05:21:48;;;;;;;11.98;3.53;;;13.00;99.90;;;;;;5067390;28;20165;-72
2021/10/06 05:24:14;;;;;;;8.18;3.60;;;13.00;99.90;;;;;;5067335;28;20222;-73
2021/10/06 05:26:40;;;;;;;6.47;3.08;;;12.90;99.90;;;;;;5067100;28;20165;-73
2021/10/06 05:29:06;;;;;;;5.43;2.63;;;13.00;99.90;;;;;;5067125;28;20211;-73
2021/10/06 05:31:32;;;;;;;4.68;2.45;;;13.00;99.90;;;;;;5066764;28;20157;-73
2021/10/06 05:33:58;;;;;;;5.93;3.00;;;13.00;99.90;;;;;;5066004;28;20207;-71
2021/10/06 05:36:24;;;;;;;9.93;3.85;;;13.10;99.90;;;;;;5065737;28;20611;-72
2021/10/06 05:38:51;;;;;;;6.85;3.53;;;13.20;99.90;;;;;;5066781;28;20199;-72
2021/10/06 05:41:17;;;;;;;6.88;2.90;;;13.20;99.90;;;;;;5049186;28;20169;-72
2021/10/06 05:43:43;;;;;;;8.57;3.33;;;13.20;99.90;;;;;;5067100;28;20188;-73
2021/10/06 05:46:09;;;;;;;7.28;3.28;;;13.20;99.90;;;;;;5066877;28;20188;-72
2021/10/06 05:48:44;;;;;;;5.57;2.95;;;13.30;99.90;;;;;;5066883;28;20212;-72
2021/10/06 05:51:10;;;;;;;9.02;3.15;;;13.40;99.90;;;;;;5067257;28;20265;-73
2021/10/06 05:53:35;;;;;;;7.78;3.17;;;13.40;99.90;;;;;;5065422;28;20244;-73
2021/10/06 05:56:01;;;;;;;7.32;3.30;;;13.50;99.90;;;;;;5065442;28;20160;-73
2021/10/06 05:58:28;;;;;;;6.15;3.63;;;13.40;99.90;;;;;;5066903;28;20180;-74
2021/10/06 06:00:55;;;;;;;3.75;2.88;;;13.40;99.90;;;;;;5066856;28;20203;-73
2021/10/06 06:03:21;;;;;;;8.27;3.15;;;13.50;99.90;;;;;;5066832;28;20520;-71
2021/10/06 06:05:47;;;;;;;8.38;3.10;;;13.50;99.90;;;;;;5066841;28;20164;-72
2021/10/06 06:08:13;;;;;;;14.55;4.28;;;13.60;99.90;;;;;;5066737;28;20235;-72
2021/10/06 06:10:39;;;;;;;6.93;3.63;;;13.60;99.90;;;;;;5066670;28;20496;-72
2021/10/06 06:13:05;;;;;;;7.85;3.05;;;13.70;99.90;;;;;;5066704;28;20157;-73
2021/10/06 06:15:31;;;;;;;7.03;3.15;;;13.90;99.90;;;;;;5065197;28;20172;-73
2021/10/06 06:17:57;;;;;;;3.58;2.38;;;14.10;99.90;;;;;;5066606;28;20179;-72
2021/10/06 06:20:23;;;;;;;3.50;2.35;;;14.30;99.90;;;;;;5066623;28;20598;-73
2021/10/06 06:22:51;;;;;;;4.03;2.65;;;14.50;99.90;;;;;;5066796;28;20165;-73
2021/10/06 06:25:19;;;;;;;4.18;2.35;;;14.60;99.90;;;;;;5066737;28;20176;-72
2021/10/06 06:27:45;;;;;;;4.80;2.72;;;14.80;99.90;;;;;;5066504;28;20173;-72
2021/10/06 06:30:12;;;;;;;3.58;2.40;;;14.90;99.90;;;;;;5065138;28;20190;-72
2021/10/06 06:32:38;;;;;;;4.30;3.65;;;15.10;99.90;;;;;;5066619;28;20153;-71
2021/10/06 06:35:05;;;;;;;3.10;1.88;;;15.30;99.90;;;;;;5066697;28;20232;-72
2021/10/06 06:37:32;;;;;;;5.32;2.85;;;15.50;99.90;;;;;;5066590;28;20168;-72
2021/10/06 06:39:58;;;;;;;3.72;2.33;;;15.70;99.90;;;;;;5066509;28;20684;-71
2021/10/06 06:42:24;;;;;;;2.60;2.40;;;15.80;99.90;;;;;;5048306;28;20251;-71
2021/10/06 06:44:50;;;;;;;2.90;2.20;;;15.90;99.90;;;;;;5067341;28;20164;-71
2021/10/06 06:47:16;;;;;;;8.95;2.80;;;15.70;99.90;;;;;;5070057;28;20169;-72
2021/10/06 06:49:42;;;;;;;4.32;2.65;;;15.70;99.90;;;;;;5051712;28;20207;-72
2021/10/06 06:52:08;;;;;;;4.35;2.88;;;15.80;99.90;;;;;;5048293;28;20221;-73
2021/10/06 06:54:34;;;;;;;3.47;2.30;;;15.90;99.90;;;;;;5048408;28;20228;-72
2021/10/06 06:57:00;;;;;;;3.33;2.65;;;16.10;99.90;;;;;;5049874;28;20173;-71
2021/10/06 06:59:26;;;;;;;4.53;2.95;;;16.50;99.90;;;;;;5049781;28;20252;-72
2021/10/06 07:01:53;;;;;;;5.35;2.58;;;17.10;99.90;;;;;;5048486;28;20165;-71
2021/10/06 07:04:19;;;;;;;4.75;2.72;;;17.50;99.90;;;;;;5049679;28;20248;-71
2021/10/06 07:06:45;;;;;;;2.83;2.17;;;17.80;99.90;;;;;;5048144;28;20189;-71
2021/10/06 07:09:11;;;;;;;2.45;2.15;;;17.90;99.90;;;;;;5049537;28;20193;-71
2021/10/06 07:11:37;;;;;;;4.72;2.65;;;18.00;99.90;;;;;;5047803;28;20181;-71
2021/10/06 07:14:03;;;;;;;3.20;2.30;;;18.10;99.90;;;;;;5048115;28;20217;-71
2021/10/06 07:16:29;;;;;;;7.82;2.85;;;18.20;99.90;;;;;;5049524;28;20150;-70
2021/10/06 07:18:55;;;;;;;4.63;2.88;;;18.30;99.90;;;;;;5049490;28;20165;-71
2021/10/06 07:21:21;;;;;;;3.10;2.63;;;18.30;99.90;;;;;;5049648;28;20181;-71
2021/10/06 07:23:47;;;;;;;3.55;2.25;;;18.00;99.90;;;;;;5049801;28;20212;-71
2021/10/06 07:26:13;;;;;;;3.03;2.72;;;18.20;99.90;;;;;;5065069;28;20200;-71
2021/10/06 07:28:39;;;;;;;2.92;2.33;;;18.10;99.90;;;;;;5049204;28;20165;-71
2021/10/06 07:31:05;;;;;;;2.83;2.47;;;17.90;99.90;;;;;;5046923;28;20172;-72
2021/10/06 07:33:32;;;;;;;9.38;2.90;;;17.70;99.90;;;;;;5049238;28;20197;-73
2021/10/06 07:35:57;;;;;;;2.90;2.30;;;17.70;99.90;;;;;;5049310;28;20221;-72
2021/10/06 07:38:23;;;;;;;3.80;2.88;;;17.30;99.90;;;;;;5049231;28;20164;-73
2021/10/06 07:40:49;;;;;;;4.25;2.28;;;17.20;99.90;;;;;;5049203;28;20161;-72
2021/10/06 07:43:15;;;;;;;3.05;2.08;;;17.00;99.90;;;;;;5048960;28;20308;-73
2021/10/06 07:45:44;;;;;;;5.22;2.30;;;16.80;99.90;;;;;;5049306;28;20727;-74
2021/10/06 07:48:10;;;;;;;4.15;2.85;;;16.90;99.90;;;;;;5049162;28;20157;-72
2021/10/06 07:50:36;;;;;;;2.50;2.30;;;17.00;99.90;;;;;;5048908;28;20212;-71
2021/10/06 07:53:02;;;;;;;3.00;2.03;;;17.20;99.90;;;;;;5060146;28;20224;-71
2021/10/06 07:55:27;;;;;;;3.45;2.55;;;17.20;99.90;;;;;;5068692;28;20180;-71
2021/10/06 07:57:53;;;;;;;4.57;2.53;;;17.10;99.90;;;;;;5068020;28;20161;-71
2021/10/06 08:00:19;;;;;;;3.83;2.63;;;16.80;99.90;;;;;;5068659;28;20164;-71
2021/10/06 08:02:46;;;;;;;3.80;2.80;;;16.80;99.90;;;;;;5068527;28;20215;-72
2021/10/06 08:05:11;;;;;;;3.40;2.38;;;16.80;99.90;;;;;;5068888;28;20169;-71
2021/10/06 08:07:37;;;;;;;7.03;2.47;;;16.70;99.90;;;;;;5069019;28;20243;-72
2021/10/06 08:10:04;;;;;;;5.68;3.20;;;16.70;99.90;;;;;;5050452;28;20231;-72
2021/10/06 08:12:31;;;;;;;6.15;3.20;;;16.70;99.90;;;;;;5068629;28;20188;-72
2021/10/06 08:14:57;;;;;;;4.55;2.80;;;16.60;99.90;;;;;;5068466;28;20157;-72
2021/10/06 08:17:23;;;;;;;4.50;2.78;;;16.50;99.90;;;;;;5068579;28;20240;-72
2021/10/06 08:19:49;;;;;;;6.40;2.83;;;16.30;99.90;;;;;;5068509;28;20149;-73
2021/10/06 08:22:16;;;;;;;6.03;3.17;;;16.50;99.90;;;;;;5050095;28;20200;-72
2021/10/06 08:24:43;;;;;;;3.85;2.85;;;16.50;99.90;;;;;;5050258;28;20195;-71
2021/10/06 08:27:12;;;;;;;5.60;3.40;;;16.40;99.90;;;;;;5068115;28;20161;-72
2021/10/06 08:29:38;;;;;;;3.08;2.55;;;16.60;99.90;;;;;;5068052;28;20204;-72
2021/10/06 08:32:04;;;;;;;4.05;2.80;;;16.80;99.90;;;;;;5068079;28;20215;-72
2021/10/06 08:34:30;;;;;;;5.65;3.08;;;17.40;99.90;;;;;;5068112;28;20309;-72
2021/10/06 08:36:56;;;;;;;4.78;2.25;;;17.70;99.90;;;;;;5068267;28;20165;-72
2021/10/06 08:39:23;;;;;;;4.75;2.63;;;17.90;99.90;;;;;;5068000;28;20561;-72
2021/10/06 08:41:49;;;;;;;3.00;2.08;;;18.00;99.90;;;;;;5068022;28;20272;-72
2021/10/06 08:44:16;;;;;;;2.67;2.05;;;17.50;99.90;;;;;;5067602;28;20227;-72
2021/10/06 08:46:43;;;;;;;2.70;1.98;;;17.40;99.90;;;;;;5067906;28;20163;-71
2021/10/06 08:49:09;;;;;;;3.70;1.80;;;17.20;99.90;;;;;;5067772;28;20661;-72
2021/10/06 08:51:35;;;;;;;3.28;1.98;;;17.20;99.90;;;;;;5066353;28;20259;-72
2021/10/06 08:54:01;;;;;;;3.53;1.92;;;17.20;99.90;;;;;;5067629;28;20295;-71
2021/10/06 08:56:28;;;;;;;3.67;1.80;;;17.30;99.90;;;;;;5067528;28;20202;-72
2021/10/06 08:58:56;;;;;;;3.20;1.80;;;17.20;99.90;;;;;;5049892;28;20474;-73
2021/10/06 09:01:27;;;;;;;4.03;2.20;;;17.00;99.90;;;;;;5067639;28;20188;-72
2021/10/06 09:04:04;;;;;;;3.95;2.13;;;17.00;99.90;;;;;;5067770;28;20215;-72
2021/10/06 09:06:41;;;;;;;3.92;2.13;;;17.10;99.90;;;;;;5067710;28;20226;-72
2021/10/06 09:09:16;;;;;;;4.28;2.00;;;17.00;99.90;;;;;;5067338;28;20188;-72
2021/10/06 09:11:45;;;;;;;3.60;2.53;;;16.80;99.90;;;;;;5067427;28;20156;-72
2021/10/06 09:14:11;;;;;;;5.53;2.30;;;16.70;99.90;;;;;;5067550;28;20192;-72
2021/10/06 09:16:38;;;;;;;2.85;2.25;;;16.60;99.90;;;;;;5067387;28;20467;-71
2021/10/06 09:19:05;;;;;;;3.75;2.13;;;16.50;99.90;;;;;;5049530;28;20240;-72
2021/10/06 09:21:36;;;;;;;4.82;2.00;;;16.40;99.90;;;;;;5067148;28;20237;-71
2021/10/06 09:24:03;;;;;;;3.08;2.30;;;16.60;99.90;;;;;;5067362;28;20196;-70
2021/10/06 09:26:29;;;;;;;2.85;1.73;;;16.60;99.90;;;;;;5067405;28;20171;-70
2021/10/06 09:28:55;;;;;;;3.20;2.28;;;16.70;99.90;;;;;;5067357;28;20164;-70
2021/10/06 09:31:25;;;;;;;2.58;1.80;;;16.80;99.90;;;;;;5066998;28;20247;-71
2021/10/06 09:33:58;;;;;;;2.50;1.85;;;17.00;99.90;;;;;;5067060;28;20188;-71
2021/10/06 09:36:31;;;;;;;2.05;1.55;;;16.90;99.90;;;;;;5067330;28;20157;-71
2021/10/06 09:39:03;;;;;;;3.58;1.90;;;16.90;99.90;;;;;;5067246;28;20258;-73
2021/10/06 09:41:34;;;;;;;3.40;1.55;;;16.80;99.90;;;;;;5067249;28;20180;-72
2021/10/06 09:44:07;;;;;;;3.63;1.67;;;16.80;99.90;;;;;;5067100;28;20191;-70
2021/10/06 09:46:45;;;;;;;1.98;1.50;;;16.80;99.90;;;;;;5067107;28;20157;-72
2021/10/06 09:49:16;;;;;;;3.90;2.08;;;16.80;99.90;;;;;;5067034;28;20192;-72
2021/10/06 09:51:42;;;;;;;3.67;1.52;;;16.70;99.90;;;;;;5066743;28;20153;-73
2021/10/06 09:54:09;;;;;;;3.10;1.77;;;16.70;99.90;;;;;;5066850;28;20252;-72
2021/10/06 09:56:40;;;;;;;3.35;1.92;;;16.60;99.90;;;;;;5066916;28;20180;-72
2021/10/06 09:59:06;;;;;;;2.63;1.48;;;16.50;99.90;;;;;;5066898;28;20216;-72
2021/10/06 10:01:36;;;;;;;2.47;1.83;;;16.40;99.90;;;;;;5048765;28;20206;-71
2021/10/06 10:04:06;;;;;;;3.30;2.15;;;16.40;99.90;;;;;;5066673;28;20197;-72
2021/10/06 10:06:33;;;;;;;4.60;2.00;;;16.30;99.90;;;;;;5067007;28;20224;-72
2021/10/06 10:09:06;;;;;;;2.25;1.58;;;16.40;99.90;;;;;;5066633;28;20208;-72
2021/10/06 10:11:37;;;;;;;2.90;2.05;;;16.40;99.90;;;;;;5067018;28;20235;-73
2021/10/06 10:14:04;;;;;;;7.07;2.17;;;16.30;99.90;;;;;;5067166;28;20188;-73
2021/10/06 10:16:31;;;;;;;3.13;1.77;;;16.30;99.90;;;;;;5067153;28;20207;-72
2021/10/06 10:19:11;;;;;;;2.10;1.60;;;16.30;99.90;;;;;;5049155;28;20179;-72
2021/10/06 10:21:42;;;;;;;2.50;2.17;;;16.30;99.90;;;;;;5070754;28;20248;-72
2021/10/06 10:24:11;;;;;;;2.83;1.88;;;16.20;99.90;;;;;;5070607;28;20217;-71
2021/10/06 10:26:53;;;;;;;2.90;1.95;;;16.30;99.90;;;;;;5070747;28;20208;-70
2021/10/06 10:30:05;;;;;;;1.98;1.50;;;16.30;99.90;;;;;;5070882;28;20208;-75
2021/10/06 10:32:45;;;;;;;9.02;2.22;;;16.30;99.90;;;;;;4970103;29;20223;-75
2021/10/06 10:35:11;;;;;;;2.08;1.80;;;16.30;99.90;;;;;;4969916;29;20188;-76
2021/10/06 10:37:51;;;;;;;2.35;2.03;;;16.30;99.90;;;;;;4969690;29;20266;-76
2021/10/06 10:40:36;;;;;;;5.20;2.15;;;16.30;99.90;;;;;;4953595;29;20235;-76
2021/10/06 10:43:09;;;;;;;2.28;1.67;;;16.20;99.90;;;;;;4969249;29;20223;-76
2021/10/06 10:45:47;;;;;;;0.73;0.63;;;16.00;99.90;;;;;;4969699;29;20193;-75
2021/10/06 10:48:22;;;;;;;2.17;0.57;;;15.60;99.90;;;;;;4969563;29;20180;-75
2021/10/06 10:50:48;;;;;;;0.52;0.50;;;15.30;99.90;;;;;;4969485;29;20191;-75
2021/10/06 10:53:19;;;;;;;0.40;0.35;;;15.10;99.90;;;;;;4969276;29;20232;-75
2021/10/06 10:55:58;;;;;;;0.70;0.47;;;14.80;99.90;;;;;;4953376;29;20184;-74
2021/10/06 10:58:31;;;;;;;0.57;0.50;;;14.30;99.90;;;;;;4969699;28;20272;-74
2021/10/06 11:00:58;;;;;;;0.70;0.52;;;14.10;99.90;;;;;;4953314;28;20192;-74
2021/10/06 11:03:24;;;;;;;1.27;0.70;;;13.90;99.90;;;;;;4950072;29;20204;-74
2021/10/06 11:05:52;;;;;;;0.75;0.30;;;13.60;99.90;;;;;;4968475;28;20218;-74
2021/10/06 11:08:35;;;;;;;0.73;0.47;;;13.20;99.90;;;;;;5038458;28;20184;-75
2021/10/06 11:11:10;;;;;;;0.28;0.20;;;12.80;99.90;;;;;;5069603;28;20200;-76
2021/10/06 11:13:39;;;;;;;2.40;0.25;;;12.40;99.90;;;;;;5051629;28;20206;-75
2021/10/06 11:16:07;;;;;;;1.85;0.30;;;12.10;99.90;;;;;;5069572;28;20213;-76
2021/10/06 11:18:50;;;;;;;2.92;0.30;;;11.70;99.90;;;;;;5069447;28;20177;-75
2021/10/06 11:21:38;;;;;;;0.15;0.15;;;11.50;99.90;;;;;;5069375;28;20148;-74
2021/10/06 11:24:19;;;;;;;0.82;0.20;;;11.30;99.90;;;;;;5069346;28;20252;-74
2021/10/06 11:26:47;;;;;;;1.80;0.40;;;11.20;99.90;;;;;;5069327;28;20161;-74
2021/10/06 11:29:13;;;;;;;0.28;0.20;;;11.10;99.90;;;;;;5050942;28;20662;-74
2021/10/06 11:31:40;;;;;;;0.77;0.35;;;11.10;99.90;;;;;;5067774;28;20172;-74
2021/10/06 11:34:16;;;;;;;3.80;0.32;;;11.10;99.90;;;;;;5069345;28;20523;-74
2021/10/06 11:36:54;;;;;;;0.68;0.30;;;11.00;99.90;;;;;;5069279;28;20220;-74
2021/10/06 11:39:22;;;;;;;0.57;0.30;;;11.00;99.90;;;;;;5069096;28;20191;-74
2021/10/06 11:41:51;;;;;;;1.65;0.35;;;11.00;99.90;;;;;;5069010;28;20184;-74
2021/10/06 11:44:30;;;;;;;2.72;0.40;;;10.90;99.90;;;;;;5068899;28;20231;-74
2021/10/06 11:47:01;;;;;;;0.75;0.40;;;10.90;99.90;;;;;;5068954;28;20195;-74
2021/10/06 11:49:29;;;;;;;0.50;0.50;;;10.90;99.90;;;;;;5068943;28;20196;-75
2021/10/06 11:51:55;;;;;;;0.10;0.10;;;10.80;99.90;;;;;;5068661;28;20169;-74
2021/10/06 11:54:24;;;;;;;0.63;0.35;;;10.70;99.90;;;;;;5068642;28;20348;-75
2021/10/06 11:56:56;;;;;;;0.40;0.13;;;10.70;99.90;;;;;;5068700;28;20261;-75
2021/10/06 11:59:25;;;;;;;0.20;0.10;;;10.70;99.90;;;;;;5050875;28;20176;-75
2021/10/06 12:02:07;;;;;;;0.28;0.20;;;10.70;99.90;;;;;;5050758;28;20203;-75
2021/10/06 12:05:03;;;;;;;1.10;0.50;;;10.70;99.90;;;;;;5066132;28;20286;-75
2021/10/06 12:07:30;;;;;;;0.30;0.30;;;10.70;99.90;;;;;;5088086;28;20183;-74
2021/10/06 12:10:01;;;;;;;0.47;0.47;;;10.70;99.90;;;;;;5070429;28;20200;-75
2021/10/06 12:12:33;;;;;;;1.60;0.30;;;10.70;99.90;;;;;;5070525;28;20183;-75
2021/10/06 12:15:04;;;;;;;0.47;0.40;;;10.60;99.90;;;;;;5088616;28;20221;-75
2021/10/06 12:17:32;;;;;;;3.67;0.40;;;10.50;99.90;;;;;;5070480;28;20214;-75
2021/10/06 12:20:00;;;;;;;0.30;0.30;;;10.40;99.90;;;;;;5088494;28;20227;-74
2021/10/06 12:22:43;;;;;;;0.45;0.40;;;10.40;99.90;;;;;;5088322;28;20184;-74
2021/10/06 12:25:17;;;;;;;2.70;0.30;;;10.30;99.90;;;;;;5070135;28;20575;-75
2021/10/06 12:27:47;;;;;;;4.68;0.20;;;10.30;99.90;;;;;;5087763;28;20167;-74
2021/10/06 12:30:19;;;;;;;0.50;0.20;;;10.40;99.90;;;;;;5087973;28;20184;-74
2021/10/06 12:32:48;;;;;;;0.43;0.20;;;10.40;99.90;;;;;;5088088;28;20219;-73
2021/10/06 12:35:18;;;;;;;1.90;0.30;;;10.40;99.90;;;;;;5069757;28;20178;-74
2021/10/06 12:37:57;;;;;;;0.35;0.28;;;10.50;99.90;;;;;;5087857;28;20548;-75
2021/10/06 12:40:43;;;;;;;0.45;0.30;;;10.40;99.90;;;;;;5069552;28;20225;-74
2021/10/06 12:43:15;;;;;;;0.32;0.30;;;10.50;99.90;;;;;;5087259;28;20221;-74
2021/10/06 12:46:06;;;;;;;0.17;0.10;;;10.50;99.90;;;;;;5087721;28;20183;-75
2021/10/06 12:48:36;;;;;;;1.75;0.30;;;10.50;99.90;;;;;;5087494;28;20263;-74
2021/10/06 12:51:05;;;;;;;0.25;0.22;;;10.50;99.90;;;;;;5087229;28;20291;-74